Terminal Aerodrome Forecast
Issued by NWS Caribou, ME

Home | Current Version | Previous Version | Text Only | Print | Product List | Glossary On
Versions: 1 2 3 4 5 6 7 8 9 10 11 12 13 14 15 16 17 18 19 20 21 22 23 24 25 26
000
FTUS41 KCAR 202341 AAA
TAFBGR
TAF AMD
KBGR 202341Z 2100/2124 24006KT P6SM SCT050
      TEMPO 2100/2101 25020G35KT 2SM +TSRA OVC040CB
     FM210200 22005KT P6SM BKN110
     FM210700 VRB03KT P6SM BCFG SKC
     FM211000 25005KT P6SM SCT070
     FM211700 27008KT P6SM VCSH SCT070 BKN120=

USA.gov is the U.S. government's official web portal to all federal, state and local government web resources and services.